createdAt,value
2019-03-22T00:01:41.730Z,36.43
2019-03-22T00:04:12.677Z,37.57
2019-03-22T00:06:43.594Z,36.93
2019-03-22T00:09:14.475Z,36.23
2019-03-22T00:11:45.402Z,35.60
2019-03-22T00:14:16.309Z,34.90
2019-03-22T00:16:47.305Z,37.13
2019-03-22T00:19:18.189Z,34.43
2019-03-22T00:21:49.097Z,36.90
2019-03-22T00:24:20.013Z,37.00
2019-03-22T00:26:51.006Z,35.33
2019-03-22T00:29:21.890Z,34.33
2019-03-22T00:31:52.828Z,36.87
2019-03-22T00:34:23.722Z,37.63
2019-03-22T00:36:54.654Z,39.53
2019-03-22T00:39:25.535Z,40.53
2019-03-22T00:41:56.453Z,38.37
2019-03-22T00:44:27.338Z,37.87
2019-03-22T00:46:58.250Z,35.47
2019-03-22T00:49:29.125Z,33.83
2019-03-22T00:52:00.027Z,35.40
2019-03-22T00:54:30.905Z,35.13
2019-03-22T00:57:01.930Z,36.40
2019-03-22T00:59:32.798Z,35.23
2019-03-22T01:02:04.053Z,36.07
2019-03-22T01:04:34.956Z,36.90
2019-03-22T01:07:06.277Z,35.47
2019-03-22T01:09:37.153Z,36.73
2019-03-22T01:12:08.061Z,35.10
2019-03-22T01:14:39.150Z,34.17
2019-03-22T01:17:10.058Z,36.77
2019-03-22T01:19:40.933Z,35.20
2019-03-22T01:22:11.928Z,37.97
2019-03-22T01:24:42.853Z,37.60
2019-03-22T01:27:13.858Z,36.73
2019-03-22T01:29:45.805Z,35.83
2019-03-22T01:32:16.815Z,34.73
2019-03-22T01:34:47.685Z,37.00
2019-03-22T01:37:18.591Z,35.97
2019-03-22T01:39:49.803Z,37.03
2019-03-22T01:42:20.806Z,37.63
2019-03-22T01:44:51.682Z,37.53
2019-03-22T01:47:22.629Z,36.20
2019-03-22T01:49:53.525Z,39.53
2019-03-22T01:52:24.542Z,38.93
2019-03-22T01:54:55.422Z,38.47
2019-03-22T01:57:26.337Z,39.33
2019-03-22T01:59:57.221Z,40.70
2019-03-22T02:02:28.149Z,39.90
2019-03-22T02:04:59.041Z,40.17
2019-03-22T02:07:29.962Z,39.67
2019-03-22T02:10:00.833Z,38.17
2019-03-22T02:12:31.734Z,39.23
2019-03-22T02:15:02.645Z,37.00
2019-03-22T02:17:33.850Z,38.23
2019-03-22T02:20:05.523Z,37.30
2019-03-22T02:22:36.441Z,36.20
2019-03-22T02:25:09.246Z,35.43
2019-03-22T02:27:40.175Z,36.50
2019-03-22T02:30:12.866Z,37.23
2019-03-22T02:32:43.969Z,37.83
2019-03-22T02:35:27.451Z,35.67
2019-03-22T02:37:47.581Z,36.27
2019-03-22T02:40:18.536Z,35.07
2019-03-22T02:42:50.545Z,36.03
2019-03-22T02:45:21.456Z,35.43
2019-03-22T02:47:52.393Z,38.70
2019-03-22T02:50:23.261Z,37.40
2019-03-22T02:52:54.195Z,35.57
2019-03-22T02:55:25.064Z,38.03
2019-03-22T02:57:56.214Z,35.67
2019-03-22T03:00:27.082Z,33.77
2019-03-22T03:02:58.088Z,35.03
2019-03-22T03:05:28.959Z,38.20
2019-03-22T03:07:59.874Z,36.10
2019-03-22T03:10:30.829Z,35.57
2019-03-22T03:13:01.824Z,35.53
2019-03-22T03:15:32.697Z,35.53
2019-03-22T03:18:03.702Z,35.03
2019-03-22T03:20:34.575Z,34.30
2019-03-22T03:23:05.534Z,34.63
2019-03-22T03:25:36.722Z,35.10
2019-03-22T03:28:07.641Z,36.23
2019-03-22T03:30:38.525Z,36.33
2019-03-22T03:33:09.461Z,36.07
2019-03-22T03:35:40.329Z,36.67
2019-03-22T03:38:11.238Z,36.07
2019-03-22T03:40:42.214Z,36.13
2019-03-22T03:43:13.134Z,35.73
2019-03-22T03:45:44.014Z,33.43
2019-03-22T03:48:14.934Z,33.83
2019-03-22T03:50:45.818Z,35.23
2019-03-22T03:53:16.751Z,35.33
2019-03-22T03:55:47.669Z,35.53
2019-03-22T03:58:18.699Z,35.33
2019-03-22T04:00:49.570Z,35.30
2019-03-22T04:03:20.511Z,36.77
2019-03-22T04:05:51.392Z,36.67
2019-03-22T04:08:22.313Z,34.47
2019-03-22T04:10:53.193Z,36.30
2019-03-22T04:13:25.284Z,34.87
2019-03-22T04:15:56.171Z,34.17
2019-03-22T04:18:27.165Z,34.20
2019-03-22T04:20:58.049Z,36.20
2019-03-22T04:23:29.058Z,37.30
2019-03-22T04:25:59.970Z,37.00
2019-03-22T04:28:30.891Z,35.07
2019-03-22T04:31:01.758Z,36.40
2019-03-22T04:33:32.674Z,37.83
2019-03-22T04:36:03.561Z,41.73
2019-03-22T04:38:34.469Z,39.73
2019-03-22T04:41:05.456Z,40.70
2019-03-22T04:43:36.364Z,40.37
2019-03-22T04:46:08.281Z,41.43
2019-03-22T04:48:39.782Z,38.87
2019-03-22T04:51:11.363Z,38.87
2019-03-22T04:53:47.965Z,39.00
2019-03-22T04:56:21.482Z,38.93
2019-03-22T04:58:53.907Z,39.67
2019-03-22T05:01:26.589Z,39.73
2019-03-22T05:03:59.237Z,40.10
2019-03-22T05:06:31.437Z,40.50
2019-03-22T05:09:04.017Z,39.87
2019-03-22T05:11:35.810Z,39.90
2019-03-22T05:14:07.434Z,38.97
2019-03-22T05:16:41.533Z,39.03
2019-03-22T05:19:14.354Z,38.43
2019-03-22T05:21:47.230Z,39.03
2019-03-22T05:24:19.446Z,38.63
2019-03-22T05:26:51.944Z,38.97
2019-03-22T05:29:30.643Z,39.17
2019-03-22T05:32:12.321Z,39.10
2019-03-22T05:34:43.325Z,38.47
2019-03-22T05:37:14.209Z,39.03
2019-03-22T05:39:45.116Z,37.77
2019-03-22T05:42:15.988Z,39.17
2019-03-22T05:44:46.918Z,40.03
2019-03-22T05:47:18.165Z,39.80
2019-03-22T05:49:49.085Z,39.10
2019-03-22T05:52:19.969Z,39.97
2019-03-22T05:54:50.881Z,39.37
2019-03-22T05:57:22.068Z,40.33
2019-03-22T05:59:53.074Z,39.13
2019-03-22T06:02:23.950Z,38.53
2019-03-22T06:04:54.861Z,39.40
2019-03-22T06:07:25.738Z,38.97
2019-03-22T06:09:56.726Z,38.00
2019-03-22T06:12:27.609Z,38.40
2019-03-22T06:14:58.529Z,38.63
2019-03-22T06:17:29.401Z,39.80
2019-03-22T06:20:01.417Z,39.00
2019-03-22T06:22:32.369Z,38.90
2019-03-22T06:25:03.370Z,38.67
2019-03-22T06:27:35.476Z,37.77
2019-03-22T06:30:07.969Z,36.47
2019-03-22T06:32:38.945Z,38.53
2019-03-22T06:35:09.890Z,38.30
2019-03-22T06:37:40.766Z,38.23
2019-03-22T06:40:11.888Z,39.70
2019-03-22T06:42:42.693Z,33.83
2019-03-22T06:45:13.706Z,36.17
2019-03-22T06:47:44.583Z,35.67
2019-03-22T06:50:15.922Z,36.33
2019-03-22T06:52:46.796Z,33.90
2019-03-22T06:55:17.701Z,34.83
2019-03-22T06:57:48.922Z,36.03
2019-03-22T07:00:19.840Z,34.83
2019-03-22T07:02:50.702Z,34.10
2019-03-22T07:05:21.614Z,31.00
2019-03-22T07:07:52.501Z,31.03
2019-03-22T07:10:24.479Z,30.97
2019-03-22T07:12:55.350Z,31.47
2019-03-22T07:15:26.355Z,30.93
2019-03-22T07:17:57.225Z,31.43
2019-03-22T07:20:28.131Z,31.80
2019-03-22T07:22:59.019Z,31.53
2019-03-22T07:25:30.005Z,29.23
2019-03-22T07:28:00.924Z,27.93
2019-03-22T07:30:31.922Z,29.13
2019-03-22T07:33:02.809Z,27.80
2019-03-22T07:35:34.542Z,28.03
2019-03-22T07:38:05.413Z,30.97
2019-03-22T07:40:36.330Z,28.90
2019-03-22T07:43:07.211Z,27.73
2019-03-22T07:45:38.229Z,29.33
2019-03-22T07:48:09.114Z,28.90
2019-03-22T07:50:40.112Z,27.40
2019-03-22T07:53:11.011Z,27.73
2019-03-22T07:55:41.905Z,28.37
2019-03-22T07:58:12.789Z,30.57
2019-03-22T08:00:43.717Z,29.90
2019-03-22T08:03:14.598Z,29.90
2019-03-22T08:05:50.906Z,30.23
2019-03-22T08:08:18.189Z,29.87
2019-03-22T08:10:49.201Z,30.57
2019-03-22T08:13:20.102Z,32.63
2019-03-22T08:15:51.076Z,32.03
2019-03-22T08:18:22.121Z,31.23
2019-03-22T08:20:53.244Z,30.10
2019-03-22T08:23:24.529Z,30.17
2019-03-22T08:25:55.485Z,29.33
2019-03-22T08:28:26.385Z,28.93
2019-03-22T08:30:57.305Z,28.50
2019-03-22T08:33:28.241Z,28.37
2019-03-22T08:36:00.000Z,30.07
2019-03-22T08:38:30.864Z,30.57
2019-03-22T08:41:02.928Z,29.73
2019-03-22T08:43:33.798Z,32.17
2019-03-22T08:46:04.736Z,31.53
2019-03-22T08:48:35.613Z,31.87
2019-03-22T08:51:06.517Z,30.47
2019-03-22T08:53:37.395Z,31.97
2019-03-22T08:56:08.330Z,31.43
2019-03-22T08:58:39.208Z,31.77
2019-03-22T09:01:10.193Z,31.20
2019-03-22T09:03:41.073Z,32.47
2019-03-22T09:06:11.990Z,31.43
2019-03-22T09:08:42.896Z,31.20
2019-03-22T09:11:13.804Z,33.87
2019-03-22T09:13:44.756Z,31.77
2019-03-22T09:16:15.768Z,30.07
2019-03-22T09:18:46.649Z,30.50
2019-03-22T09:21:17.563Z,29.13
2019-03-22T09:23:48.445Z,31.47
2019-03-22T09:26:20.124Z,32.90
2019-03-22T09:28:51.294Z,33.07
2019-03-22T09:31:22.230Z,33.80
2019-03-22T09:33:53.092Z,33.77
2019-03-22T09:36:25.063Z,33.83
2019-03-22T09:38:55.990Z,34.37
2019-03-22T09:41:26.900Z,34.30
2019-03-22T09:43:57.793Z,34.13
2019-03-22T09:46:28.668Z,33.70
2019-03-22T09:48:59.665Z,33.43
2019-03-22T09:51:30.589Z,33.77
2019-03-22T09:54:01.456Z,34.17
2019-03-22T09:56:32.362Z,33.33
2019-03-22T09:59:03.266Z,33.17
2019-03-22T10:01:34.161Z,34.23
2019-03-22T10:04:05.056Z,35.63
2019-03-22T10:06:35.975Z,37.50
2019-03-22T10:09:08.996Z,36.97
2019-03-22T10:11:39.973Z,34.77
2019-03-22T10:14:10.858Z,35.10
2019-03-22T10:16:41.774Z,36.00
2019-03-22T10:19:12.697Z,34.87
2019-03-22T10:21:43.657Z,34.30
2019-03-22T10:24:14.537Z,35.57
2019-03-22T10:26:45.550Z,38.63
2019-03-22T10:29:16.606Z,41.83
2019-03-22T10:31:47.613Z,41.50
2019-03-22T10:34:18.484Z,40.60
2019-03-22T10:36:49.436Z,40.83
2019-03-22T10:39:20.358Z,40.97
2019-03-22T10:41:51.251Z,40.40
2019-03-22T10:44:23.174Z,41.40
2019-03-22T10:46:54.288Z,41.20
2019-03-22T10:49:25.168Z,39.37
2019-03-22T10:51:58.042Z,42.17
2019-03-22T10:54:28.681Z,44.70
2019-03-22T10:56:59.616Z,48.23
2019-03-22T10:59:30.501Z,48.93
2019-03-22T11:02:03.721Z,47.37
2019-03-22T11:04:34.038Z,48.37
2019-03-22T11:07:05.256Z,49.37
2019-03-22T11:09:36.143Z,49.70
2019-03-22T11:12:12.208Z,51.07
2019-03-22T11:14:39.691Z,49.20
2019-03-22T11:17:10.606Z,51.27
2019-03-22T11:19:41.482Z,51.57
2019-03-22T11:22:12.391Z,52.40
2019-03-22T11:24:43.278Z,49.83
2019-03-22T11:27:14.196Z,50.90
2019-03-22T11:29:45.249Z,49.57
2019-03-22T11:32:16.249Z,50.33
2019-03-22T11:34:47.150Z,45.83
2019-03-22T11:37:18.081Z,46.33
2019-03-22T11:39:48.963Z,42.63
2019-03-22T11:42:19.964Z,43.17
2019-03-22T11:44:50.845Z,45.67
2019-03-22T11:47:21.774Z,45.53
2019-03-22T11:49:52.650Z,44.30
2019-03-22T11:52:23.593Z,44.07
2019-03-22T11:54:54.472Z,44.93
2019-03-22T11:57:25.459Z,44.07
2019-03-22T11:59:56.338Z,39.60
2019-03-22T12:02:27.277Z,43.13
2019-03-22T12:04:58.157Z,42.17
2019-03-22T12:07:29.084Z,44.93
2019-03-22T12:09:59.961Z,43.07
2019-03-22T12:12:30.885Z,44.50
2019-03-22T12:15:01.768Z,43.57
2019-03-22T12:17:32.771Z,42.93
2019-03-22T12:20:04.213Z,45.10
2019-03-22T12:22:35.219Z,44.83
2019-03-22T12:25:08.350Z,41.93
2019-03-22T12:27:39.296Z,42.00
2019-03-22T12:30:12.895Z,42.33
2019-03-22T12:32:43.841Z,41.17
2019-03-22T12:35:16.350Z,40.33
2019-03-22T12:37:47.270Z,40.43
2019-03-22T12:40:20.235Z,40.60
2019-03-22T12:42:51.639Z,40.43
2019-03-22T12:45:25.186Z,39.70
2019-03-22T12:47:56.104Z,41.80
2019-03-22T12:50:27.598Z,41.00
2019-03-22T12:52:58.523Z,40.60
2019-03-22T12:55:29.397Z,39.97
2019-03-22T12:58:00.662Z,41.13
2019-03-22T13:00:31.891Z,42.30
2019-03-22T13:03:02.822Z,37.97
2019-03-22T13:05:33.789Z,40.40
2019-03-22T13:08:04.788Z,40.00
2019-03-22T13:10:36.749Z,41.30
2019-03-22T13:13:07.658Z,39.93
2019-03-22T13:15:40.652Z,39.80
2019-03-22T13:18:12.661Z,40.10
2019-03-22T13:20:43.541Z,38.87
2019-03-22T13:23:14.461Z,39.10
2019-03-22T13:25:45.345Z,37.67
2019-03-22T13:28:16.345Z,37.43
2019-03-22T13:30:47.259Z,37.37
2019-03-22T13:33:18.165Z,37.27
2019-03-22T13:35:49.046Z,36.60
2019-03-22T13:38:19.997Z,38.87
2019-03-22T13:40:50.883Z,37.93
2019-03-22T13:43:21.886Z,36.53
2019-03-22T13:45:52.785Z,37.07
2019-03-22T13:48:24.075Z,36.63
2019-03-22T13:50:54.973Z,37.57
2019-03-22T13:53:26.985Z,36.43
2019-03-22T13:55:57.877Z,37.27
2019-03-22T13:58:29.978Z,36.23
2019-03-22T14:01:00.897Z,35.43
2019-03-22T14:03:33.208Z,35.30
2019-03-22T14:06:04.329Z,33.20
2019-03-22T14:08:35.696Z,34.87
2019-03-22T14:11:06.598Z,34.27
2019-03-22T14:13:39.677Z,34.03
2019-03-22T14:16:10.058Z,36.50
2019-03-22T14:18:41.016Z,34.93
2019-03-22T14:21:11.916Z,35.70
2019-03-22T14:23:42.837Z,34.90
2019-03-22T14:26:13.729Z,36.37
2019-03-22T14:28:44.810Z,38.73
2019-03-22T14:31:15.793Z,36.57
2019-03-22T14:33:46.719Z,37.17
2019-03-22T14:36:17.613Z,36.23
2019-03-22T14:38:49.673Z,38.30
2019-03-22T14:41:20.614Z,36.60
2019-03-22T14:43:51.678Z,37.77
2019-03-22T14:46:22.593Z,37.13
2019-03-22T14:48:53.654Z,36.57
2019-03-22T14:51:24.565Z,35.03
2019-03-22T14:53:55.578Z,35.27
2019-03-22T14:56:26.466Z,35.47
2019-03-22T14:58:57.494Z,35.43
2019-03-22T15:01:28.385Z,35.83
2019-03-22T15:03:59.435Z,34.63
2019-03-22T15:06:30.320Z,35.77
2019-03-22T15:09:01.263Z,32.90
2019-03-22T15:11:33.917Z,32.60
2019-03-22T15:14:10.761Z,32.33
2019-03-22T15:16:54.232Z,32.00
2019-03-22T15:19:39.868Z,32.43
2019-03-22T15:22:29.681Z,31.57
2019-03-22T15:25:19.536Z,31.50
2019-03-22T15:28:03.429Z,30.77
2019-03-22T15:30:50.489Z,28.77
2019-03-22T15:33:40.040Z,28.37
2019-03-22T15:36:47.952Z,27.73
2019-03-22T15:39:37.875Z,26.23
2019-03-22T15:42:08.954Z,26.97
2019-03-22T15:44:39.853Z,26.97
2019-03-22T15:47:10.954Z,27.20
2019-03-22T15:49:41.851Z,27.73
2019-03-22T15:52:13.932Z,26.93
2019-03-22T15:54:44.812Z,25.90
2019-03-22T15:57:15.825Z,25.33
2019-03-22T15:59:46.715Z,25.47
2019-03-22T16:02:17.660Z,24.63
2019-03-22T16:04:48.886Z,24.63
2019-03-22T16:07:19.773Z,25.17
2019-03-22T16:09:50.682Z,25.27
2019-03-22T16:12:21.598Z,24.50
2019-03-22T16:14:52.941Z,24.97
2019-03-22T16:17:23.821Z,23.97
2019-03-22T16:19:54.734Z,23.00
2019-03-22T16:22:25.622Z,23.10
2019-03-22T16:24:56.598Z,22.33
2019-03-22T16:27:27.481Z,23.73
2019-03-22T16:29:58.399Z,23.77
2019-03-22T16:32:29.365Z,25.40
2019-03-22T16:35:00.681Z,25.40
2019-03-22T16:37:31.550Z,25.07
2019-03-22T16:40:04.577Z,24.53
2019-03-22T16:42:35.380Z,24.53
2019-03-22T16:45:07.947Z,25.00
2019-03-22T16:47:38.837Z,24.60
2019-03-22T16:50:21.512Z,24.70
2019-03-22T16:52:52.577Z,24.87
2019-03-22T16:55:24.088Z,25.00
2019-03-22T16:57:55.021Z,24.13
2019-03-22T17:00:25.947Z,25.70
2019-03-22T17:02:56.861Z,25.53
2019-03-22T17:05:27.872Z,25.83
2019-03-22T17:07:58.774Z,26.33
2019-03-22T17:10:29.699Z,28.00
2019-03-22T17:13:00.605Z,26.80
2019-03-22T17:15:31.529Z,28.60
2019-03-22T17:18:02.425Z,30.77
2019-03-22T17:20:33.529Z,31.30
2019-03-22T17:23:04.529Z,31.70
2019-03-22T17:25:35.791Z,31.73
2019-03-22T17:28:06.677Z,38.30
2019-03-22T17:30:38.698Z,37.23
2019-03-22T17:33:09.620Z,41.13
2019-03-22T17:35:40.544Z,43.67
2019-03-22T17:38:11.425Z,43.03
2019-03-22T17:40:42.361Z,46.70
2019-03-22T17:43:13.236Z,47.70
2019-03-22T17:45:44.160Z,50.00
2019-03-22T17:48:15.340Z,51.70
2019-03-22T17:50:46.305Z,51.13
2019-03-22T17:53:17.175Z,50.90
2019-03-22T17:55:48.952Z,51.73
2019-03-22T17:58:19.857Z,51.77
2019-03-22T18:00:51.307Z,54.10
2019-03-22T18:03:22.198Z,55.80
2019-03-22T18:05:53.201Z,52.23
2019-03-22T18:08:24.086Z,56.77
2019-03-22T18:10:55.818Z,55.17
2019-03-22T18:13:26.695Z,54.27
2019-03-22T18:15:57.614Z,56.53
2019-03-22T18:18:28.497Z,54.83
2019-03-22T18:20:59.414Z,55.87
2019-03-22T18:23:35.718Z,55.33
2019-03-22T18:26:02.854Z,56.03
2019-03-22T18:28:33.801Z,55.80
2019-03-22T18:31:04.718Z,53.80
2019-03-22T18:33:35.657Z,55.97
2019-03-22T18:36:06.573Z,53.93
2019-03-22T18:38:37.450Z,53.27
2019-03-22T18:41:08.371Z,54.13
2019-03-22T18:43:39.248Z,55.83
2019-03-22T18:46:10.181Z,55.63
2019-03-22T18:48:41.131Z,54.73
2019-03-22T18:51:12.046Z,53.40
2019-03-22T18:53:42.923Z,52.20
2019-03-22T18:56:13.854Z,51.93
2019-03-22T18:58:44.733Z,53.47
2019-03-22T19:01:15.750Z,50.93
2019-03-22T19:03:46.633Z,51.83
2019-03-22T19:06:17.548Z,48.23
2019-03-22T19:08:48.438Z,52.17
2019-03-22T19:11:20.446Z,47.90
2019-03-22T19:13:51.334Z,47.00
2019-03-22T19:16:22.337Z,47.07
2019-03-22T19:18:53.217Z,46.33
2019-03-22T19:21:24.149Z,45.70
2019-03-22T19:23:55.038Z,45.27
2019-03-22T19:26:25.951Z,43.93
2019-03-22T19:28:57.134Z,42.73
2019-03-22T19:31:28.063Z,42.97
2019-03-22T19:33:59.018Z,43.53
2019-03-22T19:36:30.014Z,44.53
2019-03-22T19:39:00.907Z,43.77
2019-03-22T19:41:32.749Z,43.67
2019-03-22T19:44:04.699Z,44.73
2019-03-22T19:46:35.621Z,45.13
2019-03-22T19:49:06.505Z,44.77
2019-03-22T19:51:37.501Z,44.83
2019-03-22T19:54:08.384Z,45.57
2019-03-22T19:56:39.386Z,46.17
2019-03-22T19:59:10.772Z,45.50
2019-03-22T20:01:42.157Z,46.83
2019-03-22T20:04:13.154Z,46.60
2019-03-22T20:06:44.564Z,43.90
2019-03-22T20:09:15.545Z,47.23
2019-03-22T20:11:46.945Z,45.57
2019-03-22T20:14:18.936Z,45.43
2019-03-22T20:16:49.916Z,45.40
2019-03-22T20:19:21.154Z,44.83
2019-03-22T20:21:52.145Z,46.30
2019-03-22T20:24:23.015Z,46.23
2019-03-22T20:26:54.026Z,47.23
2019-03-22T20:29:24.906Z,44.40
2019-03-22T20:31:55.837Z,44.80
2019-03-22T20:34:26.767Z,43.17
2019-03-22T20:36:58.066Z,45.87
2019-03-22T20:39:28.942Z,52.40
2019-03-22T20:41:59.873Z,51.00
2019-03-22T20:44:34.093Z,49.93
2019-03-22T20:47:03.343Z,49.67
2019-03-22T20:49:34.213Z,48.67
2019-03-22T20:52:05.329Z,47.47
2019-03-22T20:54:36.210Z,49.97
2019-03-22T20:57:07.149Z,47.93
2019-03-22T20:59:38.097Z,45.57
2019-03-22T21:02:09.025Z,46.33
2019-03-22T21:04:39.909Z,48.60
2019-03-22T21:07:11.893Z,47.43
2019-03-22T21:09:42.798Z,47.67
2019-03-22T21:12:14.089Z,47.80
2019-03-22T21:14:44.993Z,48.97
2019-03-22T21:17:16.260Z,47.53
2019-03-22T21:19:47.371Z,49.43
2019-03-22T21:22:18.713Z,52.87
2019-03-22T21:24:49.592Z,47.27
2019-03-22T21:27:20.504Z,47.47
2019-03-22T21:29:51.378Z,47.67
2019-03-22T21:32:22.337Z,49.53
2019-03-22T21:34:53.357Z,48.77
2019-03-22T21:37:24.274Z,48.37
2019-03-22T21:39:55.149Z,48.50
2019-03-22T21:42:26.154Z,46.40
2019-03-22T21:44:57.041Z,47.83
2019-03-22T21:47:28.041Z,46.60
2019-03-22T21:49:58.918Z,47.20
2019-03-22T21:52:29.842Z,47.00
2019-03-22T21:55:00.729Z,46.43
2019-03-22T21:57:31.628Z,48.10
2019-03-22T22:00:02.505Z,50.17
2019-03-22T22:02:33.487Z,49.70
2019-03-22T22:05:04.491Z,50.80
2019-03-22T22:07:35.423Z,47.80
2019-03-22T22:10:06.661Z,53.97
2019-03-22T22:12:38.025Z,50.33
2019-03-22T22:15:10.780Z,50.43
2019-03-22T22:17:42.181Z,52.47
2019-03-22T22:20:13.802Z,53.77
2019-03-22T22:22:44.702Z,58.27
2019-03-22T22:25:15.577Z,53.47
2019-03-22T22:27:46.581Z,56.43
2019-03-22T22:30:17.454Z,54.60
2019-03-22T22:32:48.381Z,50.67
2019-03-22T22:35:20.528Z,57.60
2019-03-22T22:37:51.401Z,55.70
2019-03-22T22:40:22.277Z,55.77
2019-03-22T22:42:53.480Z,58.33
2019-03-22T22:45:24.365Z,55.30
2019-03-22T22:47:55.293Z,58.23
2019-03-22T22:50:26.173Z,61.07
2019-03-22T22:52:57.098Z,59.53
2019-03-22T22:55:27.981Z,60.23
2019-03-22T22:57:58.900Z,59.27
2019-03-22T23:00:29.821Z,59.47
2019-03-22T23:03:01.591Z,57.63
2019-03-22T23:05:32.474Z,60.43
2019-03-22T23:08:03.383Z,58.90
2019-03-22T23:10:34.258Z,59.53
2019-03-22T23:13:05.161Z,61.97
2019-03-22T23:15:36.046Z,58.57
2019-03-22T23:18:07.033Z,59.83
2019-03-22T23:20:37.924Z,59.80
2019-03-22T23:23:08.842Z,57.00
2019-03-22T23:25:39.721Z,58.80
2019-03-22T23:28:10.642Z,61.80
2019-03-22T23:30:41.513Z,61.00
2019-03-22T23:33:12.509Z,61.17
2019-03-22T23:35:43.438Z,60.43
2019-03-22T23:38:14.350Z,59.93
2019-03-22T23:40:45.240Z,60.37
2019-03-22T23:43:16.665Z,59.03
2019-03-22T23:45:47.633Z,59.50
2019-03-22T23:48:18.555Z,60.77
2019-03-22T23:50:49.523Z,58.13
2019-03-22T23:53:20.436Z,57.27
2019-03-22T23:55:51.329Z,55.87
2019-03-22T23:58:22.232Z,58.07
